sensor_id;sensor_type;location;lat;lon;timestamp;temperature;humidity
34406;DHT22;20658;45.630;8.886;2023-02-05T00:02:03;7.70;70.00
34406;DHT22;20658;45.630;8.886;2023-02-05T00:04:38;7.60;69.80
34406;DHT22;20658;45.630;8.886;2023-02-05T00:07:11;7.60;70.00
34406;DHT22;20658;45.630;8.886;2023-02-05T00:09:44;7.50;69.90
34406;DHT22;20658;45.630;8.886;2023-02-05T00:12:19;7.50;69.90
34406;DHT22;20658;45.630;8.886;2023-02-05T00:14:52;7.40;69.60
34406;DHT22;20658;45.630;8.886;2023-02-05T00:17:26;7.40;69.40
34406;DHT22;20658;45.630;8.886;2023-02-05T00:19:59;7.30;68.80
34406;DHT22;20658;45.630;8.886;2023-02-05T00:22:32;7.30;68.80
34406;DHT22;20658;45.630;8.886;2023-02-05T00:25:06;7.20;68.80
34406;DHT22;20658;45.630;8.886;2023-02-05T00:27:41;7.20;68.90
34406;DHT22;20658;45.630;8.886;2023-02-05T00:30:14;7.10;68.40
34406;DHT22;20658;45.630;8.886;2023-02-05T00:32:48;7.10;67.60
34406;DHT22;20658;45.630;8.886;2023-02-05T00:35:23;7.10;67.10
34406;DHT22;20658;45.630;8.886;2023-02-05T00:37:56;7.10;66.80
34406;DHT22;20658;45.630;8.886;2023-02-05T00:40:29;7.00;66.60
34406;DHT22;20658;45.630;8.886;2023-02-05T00:43:04;7.00;66.60
34406;DHT22;20658;45.630;8.886;2023-02-05T00:45:37;6.90;66.40
34406;DHT22;20658;45.630;8.886;2023-02-05T00:48:10;6.90;66.40
34406;DHT22;20658;45.630;8.886;2023-02-05T00:50:44;6.90;66.10
34406;DHT22;20658;45.630;8.886;2023-02-05T00:53:21;6.90;65.00
34406;DHT22;20658;45.630;8.886;2023-02-05T00:55:55;6.90;64.20
34406;DHT22;20658;45.630;8.886;2023-02-05T00:58:29;6.80;63.90
34406;DHT22;20658;45.630;8.886;2023-02-05T01:01:03;6.80;63.30
34406;DHT22;20658;45.630;8.886;2023-02-05T01:03:37;6.80;63.00
34406;DHT22;20658;45.630;8.886;2023-02-05T01:06:11;6.80;63.00
34406;DHT22;20658;45.630;8.886;2023-02-05T01:08:44;7.10;62.40
34406;DHT22;20658;45.630;8.886;2023-02-05T01:11:17;6.70;62.40
34406;DHT22;20658;45.630;8.886;2023-02-05T01:13:53;6.70;62.80
34406;DHT22;20658;45.630;8.886;2023-02-05T01:16:26;6.60;63.00
34406;DHT22;20658;45.630;8.886;2023-02-05T01:18:59;6.60;62.70
34406;DHT22;20658;45.630;8.886;2023-02-05T01:21:33;6.60;62.80
34406;DHT22;20658;45.630;8.886;2023-02-05T01:24:07;6.50;62.70
34406;DHT22;20658;45.630;8.886;2023-02-05T01:26:35;6.50;62.90
34406;DHT22;20658;45.630;8.886;2023-02-05T01:29:10;6.60;62.90
34406;DHT22;20658;45.630;8.886;2023-02-05T01:31:43;6.40;62.80
34406;DHT22;20658;45.630;8.886;2023-02-05T01:34:12;6.40;62.90
34406;DHT22;20658;45.630;8.886;2023-02-05T01:36:45;6.40;62.90
34406;DHT22;20658;45.630;8.886;2023-02-05T01:39:18;6.30;63.10
34406;DHT22;20658;45.630;8.886;2023-02-05T01:41:52;6.20;63.30
34406;DHT22;20658;45.630;8.886;2023-02-05T01:44:29;6.20;63.30
34406;DHT22;20658;45.630;8.886;2023-02-05T01:47:02;6.20;63.50
34406;DHT22;20658;45.630;8.886;2023-02-05T01:49:39;6.30;63.40
34406;DHT22;20658;45.630;8.886;2023-02-05T01:52:11;6.10;63.30
34406;DHT22;20658;45.630;8.886;2023-02-05T01:54:46;6.10;63.30
34406;DHT22;20658;45.630;8.886;2023-02-05T01:57:24;6.00;63.30
34406;DHT22;20658;45.630;8.886;2023-02-05T01:59:59;6.00;63.70
34406;DHT22;20658;45.630;8.886;2023-02-05T02:02:41;5.90;64.00
34406;DHT22;20658;45.630;8.886;2023-02-05T02:05:15;5.80;63.80
34406;DHT22;20658;45.630;8.886;2023-02-05T02:07:50;5.80;64.10
34406;DHT22;20658;45.630;8.886;2023-02-05T02:10:24;5.70;64.10
34406;DHT22;20658;45.630;8.886;2023-02-05T02:12:58;5.70;64.20
34406;DHT22;20658;45.630;8.886;2023-02-05T02:15:32;5.60;64.60
34406;DHT22;20658;45.630;8.886;2023-02-05T02:18:07;5.60;64.60
34406;DHT22;20658;45.630;8.886;2023-02-05T02:24:48;5.50;64.80
34406;DHT22;20658;45.630;8.886;2023-02-05T02:27:39;5.50;65.50
34406;DHT22;20658;45.630;8.886;2023-02-05T02:30:22;5.50;65.50
34406;DHT22;20658;45.630;8.886;2023-02-05T02:33:04;5.40;65.60
34406;DHT22;20658;45.630;8.886;2023-02-05T02:35:43;5.40;65.80
34406;DHT22;20658;45.630;8.886;2023-02-05T02:38:19;5.30;66.30
34406;DHT22;20658;45.630;8.886;2023-02-05T02:41:00;5.30;66.50
34406;DHT22;20658;45.630;8.886;2023-02-05T02:43:41;5.20;67.00
34406;DHT22;20658;45.630;8.886;2023-02-05T02:46:21;5.20;66.90
34406;DHT22;20658;45.630;8.886;2023-02-05T02:48:58;5.50;67.10
34406;DHT22;20658;45.630;8.886;2023-02-05T02:51:37;5.10;67.30
34406;DHT22;20658;45.630;8.886;2023-02-05T02:54:14;5.10;67.30
34406;DHT22;20658;45.630;8.886;2023-02-05T02:56:50;5.10;67.70
34406;DHT22;20658;45.630;8.886;2023-02-05T02:59:28;5.00;67.50
34406;DHT22;20658;45.630;8.886;2023-02-05T03:02:04;5.00;67.70
34406;DHT22;20658;45.630;8.886;2023-02-05T03:04:41;4.90;67.90
34406;DHT22;20658;45.630;8.886;2023-02-05T03:07:19;4.90;68.20
34406;DHT22;20658;45.630;8.886;2023-02-05T03:10:01;4.80;68.10
34406;DHT22;20658;45.630;8.886;2023-02-05T03:12:38;4.80;68.50
34406;DHT22;20658;45.630;8.886;2023-02-05T03:15:13;4.80;68.70
34406;DHT22;20658;45.630;8.886;2023-02-05T03:17:47;4.80;68.80
34406;DHT22;20658;45.630;8.886;2023-02-05T03:20:24;4.70;69.10
34406;DHT22;20658;45.630;8.886;2023-02-05T03:22:59;4.70;69.50
34406;DHT22;20658;45.630;8.886;2023-02-05T03:25:33;4.70;69.40
34406;DHT22;20658;45.630;8.886;2023-02-05T03:28:08;4.70;69.30
34406;DHT22;20658;45.630;8.886;2023-02-05T03:30:53;5.00;69.60
34406;DHT22;20658;45.630;8.886;2023-02-05T03:33:38;4.60;69.60
34406;DHT22;20658;45.630;8.886;2023-02-05T03:36:26;4.60;69.50
34406;DHT22;20658;45.630;8.886;2023-02-05T03:39:14;4.50;69.50
34406;DHT22;20658;45.630;8.886;2023-02-05T03:42:00;4.50;69.70
34406;DHT22;20658;45.630;8.886;2023-02-05T03:45:12;4.50;69.70
34406;DHT22;20658;45.630;8.886;2023-02-05T03:48:12;4.50;69.90
34406;DHT22;20658;45.630;8.886;2023-02-05T03:50:58;4.40;70.00
34406;DHT22;20658;45.630;8.886;2023-02-05T03:53:40;4.50;70.10
34406;DHT22;20658;45.630;8.886;2023-02-05T03:56:20;4.30;69.90
34406;DHT22;20658;45.630;8.886;2023-02-05T03:58:57;4.30;70.00
34406;DHT22;20658;45.630;8.886;2023-02-05T04:01:32;4.30;70.30
34406;DHT22;20658;45.630;8.886;2023-02-05T04:04:08;4.30;70.30
34406;DHT22;20658;45.630;8.886;2023-02-05T04:06:50;4.20;70.40
34406;DHT22;20658;45.630;8.886;2023-02-05T04:09:24;4.20;70.40
34406;DHT22;20658;45.630;8.886;2023-02-05T04:11:58;4.20;70.50
34406;DHT22;20658;45.630;8.886;2023-02-05T04:14:32;4.10;70.80
34406;DHT22;20658;45.630;8.886;2023-02-05T04:17:05;4.10;71.10
34406;DHT22;20658;45.630;8.886;2023-02-05T04:19:42;4.10;71.10
34406;DHT22;20658;45.630;8.886;2023-02-05T04:22:17;4.10;71.20
34406;DHT22;20658;45.630;8.886;2023-02-05T04:24:50;4.00;71.30
34406;DHT22;20658;45.630;8.886;2023-02-05T04:27:24;4.00;71.50
34406;DHT22;20658;45.630;8.886;2023-02-05T04:30:00;4.20;71.50
34406;DHT22;20658;45.630;8.886;2023-02-05T04:32:37;4.00;71.40
34406;DHT22;20658;45.630;8.886;2023-02-05T04:35:14;3.90;71.90
34406;DHT22;20658;45.630;8.886;2023-02-05T04:37:48;4.00;72.00
34406;DHT22;20658;45.630;8.886;2023-02-05T04:40:22;3.90;72.30
34406;DHT22;20658;45.630;8.886;2023-02-05T04:42:55;3.90;72.60
34406;DHT22;20658;45.630;8.886;2023-02-05T04:45:28;4.20;72.80
34406;DHT22;20658;45.630;8.886;2023-02-05T04:47:59;3.80;73.00
34406;DHT22;20658;45.630;8.886;2023-02-05T04:50:34;3.80;72.90
34406;DHT22;20658;45.630;8.886;2023-02-05T04:53:07;3.80;73.30
34406;DHT22;20658;45.630;8.886;2023-02-05T04:55:41;3.70;73.60
34406;DHT22;20658;45.630;8.886;2023-02-05T04:58:14;3.60;73.60
34406;DHT22;20658;45.630;8.886;2023-02-05T05:00:47;3.80;74.80
34406;DHT22;20658;45.630;8.886;2023-02-05T05:03:21;3.60;74.80
34406;DHT22;20658;45.630;8.886;2023-02-05T05:05:55;3.50;74.70
34406;DHT22;20658;45.630;8.886;2023-02-05T05:08:29;3.50;75.00
34406;DHT22;20658;45.630;8.886;2023-02-05T05:11:05;3.40;74.90
34406;DHT22;20658;45.630;8.886;2023-02-05T05:13:39;3.40;75.10
34406;DHT22;20658;45.630;8.886;2023-02-05T05:16:15;3.60;75.50
34406;DHT22;20658;45.630;8.886;2023-02-05T05:18:50;3.30;75.40
34406;DHT22;20658;45.630;8.886;2023-02-05T05:21:25;3.30;75.70
34406;DHT22;20658;45.630;8.886;2023-02-05T05:23:58;3.30;75.80
34406;DHT22;20658;45.630;8.886;2023-02-05T05:26:31;3.30;76.10
34406;DHT22;20658;45.630;8.886;2023-02-05T05:29:05;3.30;76.20
34406;DHT22;20658;45.630;8.886;2023-02-05T05:31:38;3.50;76.30
34406;DHT22;20658;45.630;8.886;2023-02-05T05:34:12;3.20;76.80
34406;DHT22;20658;45.630;8.886;2023-02-05T05:36:46;3.10;77.30
34406;DHT22;20658;45.630;8.886;2023-02-05T05:39:20;3.10;77.70
34406;DHT22;20658;45.630;8.886;2023-02-05T05:42:11;3.00;77.60
34406;DHT22;20658;45.630;8.886;2023-02-05T05:45:01;3.00;78.00
34406;DHT22;20658;45.630;8.886;2023-02-05T05:47:35;3.00;77.90
34406;DHT22;20658;45.630;8.886;2023-02-05T05:50:09;3.00;78.30
34406;DHT22;20658;45.630;8.886;2023-02-05T05:52:43;3.00;78.40
34406;DHT22;20658;45.630;8.886;2023-02-05T05:55:16;3.00;78.40
34406;DHT22;20658;45.630;8.886;2023-02-05T05:57:50;3.00;78.30
34406;DHT22;20658;45.630;8.886;2023-02-05T06:00:23;3.00;78.40
34406;DHT22;20658;45.630;8.886;2023-02-05T06:02:56;2.90;78.20
34406;DHT22;20658;45.630;8.886;2023-02-05T06:05:30;2.90;78.20
34406;DHT22;20658;45.630;8.886;2023-02-05T06:08:05;2.90;78.20
34406;DHT22;20658;45.630;8.886;2023-02-05T06:10:38;2.80;78.50
34406;DHT22;20658;45.630;8.886;2023-02-05T06:13:12;2.80;78.60
34406;DHT22;20658;45.630;8.886;2023-02-05T06:15:45;2.80;79.20
34406;DHT22;20658;45.630;8.886;2023-02-05T06:18:20;2.80;79.10
34406;DHT22;20658;45.630;8.886;2023-02-05T06:20:53;2.80;79.60
34406;DHT22;20658;45.630;8.886;2023-02-05T06:23:28;2.80;79.60
34406;DHT22;20658;45.630;8.886;2023-02-05T06:26:01;2.80;79.60
34406;DHT22;20658;45.630;8.886;2023-02-05T06:28:35;2.80;79.70
34406;DHT22;20658;45.630;8.886;2023-02-05T06:31:08;2.70;79.40
34406;DHT22;20658;45.630;8.886;2023-02-05T06:33:41;2.70;79.40
34406;DHT22;20658;45.630;8.886;2023-02-05T06:36:14;2.70;79.50
34406;DHT22;20658;45.630;8.886;2023-02-05T06:38:49;2.70;79.50
34406;DHT22;20658;45.630;8.886;2023-02-05T06:41:22;2.60;79.80
34406;DHT22;20658;45.630;8.886;2023-02-05T06:43:56;3.00;79.90
34406;DHT22;20658;45.630;8.886;2023-02-05T06:46:24;2.60;79.50
34406;DHT22;20658;45.630;8.886;2023-02-05T06:48:57;2.60;79.70
34406;DHT22;20658;45.630;8.886;2023-02-05T06:51:30;2.70;79.70
34406;DHT22;20658;45.630;8.886;2023-02-05T06:54:05;2.60;79.80
34406;DHT22;20658;45.630;8.886;2023-02-05T06:56:40;2.70;79.70
34406;DHT22;20658;45.630;8.886;2023-02-05T06:59:13;2.70;79.60
34406;DHT22;20658;45.630;8.886;2023-02-05T07:01:46;2.70;79.70
34406;DHT22;20658;45.630;8.886;2023-02-05T07:04:20;2.70;79.80
34406;DHT22;20658;45.630;8.886;2023-02-05T07:06:53;2.70;79.70
34406;DHT22;20658;45.630;8.886;2023-02-05T07:09:28;2.70;79.50
34406;DHT22;20658;45.630;8.886;2023-02-05T07:12:02;2.70;79.40
34406;DHT22;20658;45.630;8.886;2023-02-05T07:14:36;2.80;79.30
34406;DHT22;20658;45.630;8.886;2023-02-05T07:17:09;2.80;79.20
34406;DHT22;20658;45.630;8.886;2023-02-05T07:19:43;2.80;79.00
34406;DHT22;20658;45.630;8.886;2023-02-05T07:22:16;2.80;79.20
34406;DHT22;20658;45.630;8.886;2023-02-05T07:24:51;2.80;78.80
34406;DHT22;20658;45.630;8.886;2023-02-05T07:27:24;2.90;79.20
34406;DHT22;20658;45.630;8.886;2023-02-05T07:29:58;2.90;79.20
34406;DHT22;20658;45.630;8.886;2023-02-05T07:32:31;3.00;79.00
34406;DHT22;20658;45.630;8.886;2023-02-05T07:35:05;3.00;79.00
34406;DHT22;20658;45.630;8.886;2023-02-05T07:37:38;3.00;79.20
34406;DHT22;20658;45.630;8.886;2023-02-05T07:40:13;3.10;78.80
34406;DHT22;20658;45.630;8.886;2023-02-05T07:42:46;3.10;78.40
34406;DHT22;20658;45.630;8.886;2023-02-05T07:45:20;3.10;78.20
34406;DHT22;20658;45.630;8.886;2023-02-05T07:47:53;3.20;78.00
34406;DHT22;20658;45.630;8.886;2023-02-05T07:50:26;3.30;77.70
34406;DHT22;20658;45.630;8.886;2023-02-05T07:53:00;3.60;77.50
34406;DHT22;20658;45.630;8.886;2023-02-05T07:55:35;3.50;77.00
34406;DHT22;20658;45.630;8.886;2023-02-05T07:58:08;3.60;76.50
34406;DHT22;20658;45.630;8.886;2023-02-05T08:00:42;3.70;76.40
34406;DHT22;20658;45.630;8.886;2023-02-05T08:03:15;3.90;75.60
34406;DHT22;20658;45.630;8.886;2023-02-05T08:05:50;4.00;75.00
34406;DHT22;20658;45.630;8.886;2023-02-05T08:08:19;4.10;74.70
34406;DHT22;20658;45.630;8.886;2023-02-05T08:10:59;4.20;74.10
34406;DHT22;20658;45.630;8.886;2023-02-05T08:13:33;4.30;73.40
34406;DHT22;20658;45.630;8.886;2023-02-05T08:16:07;4.40;73.00
34406;DHT22;20658;45.630;8.886;2023-02-05T08:18:42;4.50;72.60
34406;DHT22;20658;45.630;8.886;2023-02-05T08:21:19;4.70;72.20
34406;DHT22;20658;45.630;8.886;2023-02-05T08:23:53;4.80;71.50
34406;DHT22;20658;45.630;8.886;2023-02-05T08:26:29;4.90;71.00
34406;DHT22;20658;45.630;8.886;2023-02-05T08:29:02;5.40;70.90
34406;DHT22;20658;45.630;8.886;2023-02-05T08:31:36;5.20;69.90
34406;DHT22;20658;45.630;8.886;2023-02-05T08:34:11;5.40;69.30
34406;DHT22;20658;45.630;8.886;2023-02-05T08:36:44;5.50;68.60
34406;DHT22;20658;45.630;8.886;2023-02-05T08:39:17;5.70;67.90
34406;DHT22;20658;45.630;8.886;2023-02-05T08:41:52;5.80;67.20
34406;DHT22;20658;45.630;8.886;2023-02-05T08:44:26;5.90;66.80
34406;DHT22;20658;45.630;8.886;2023-02-05T08:47:00;6.00;66.30
34406;DHT22;20658;45.630;8.886;2023-02-05T08:49:31;6.10;66.20
34406;DHT22;20658;45.630;8.886;2023-02-05T08:52:06;6.20;65.60
34406;DHT22;20658;45.630;8.886;2023-02-05T08:54:39;6.30;65.20
34406;DHT22;20658;45.630;8.886;2023-02-05T08:57:14;6.50;64.50
34406;DHT22;20658;45.630;8.886;2023-02-05T08:59:48;6.60;64.40
34406;DHT22;20658;45.630;8.886;2023-02-05T09:02:22;6.70;64.10
34406;DHT22;20658;45.630;8.886;2023-02-05T09:04:55;6.80;63.40
34406;DHT22;20658;45.630;8.886;2023-02-05T09:07:29;6.80;63.10
34406;DHT22;20658;45.630;8.886;2023-02-05T09:10:03;6.90;63.20
34406;DHT22;20658;45.630;8.886;2023-02-05T09:12:38;7.00;61.90
34406;DHT22;20658;45.630;8.886;2023-02-05T09:15:12;7.00;62.20
34406;DHT22;20658;45.630;8.886;2023-02-05T09:17:45;7.10;61.60
34406;DHT22;20658;45.630;8.886;2023-02-05T09:20:18;7.10;61.60
34406;DHT22;20658;45.630;8.886;2023-02-05T09:22:52;7.30;61.30
34406;DHT22;20658;45.630;8.886;2023-02-05T09:25:25;7.30;60.70
34406;DHT22;20658;45.630;8.886;2023-02-05T09:28:02;7.40;60.50
34406;DHT22;20658;45.630;8.886;2023-02-05T09:30:35;7.50;60.10
34406;DHT22;20658;45.630;8.886;2023-02-05T09:33:06;7.60;59.80
34406;DHT22;20658;45.630;8.886;2023-02-05T09:35:40;7.60;59.60
34406;DHT22;20658;45.630;8.886;2023-02-05T09:38:15;7.70;59.70
34406;DHT22;20658;45.630;8.886;2023-02-05T09:40:55;7.70;58.80
34406;DHT22;20658;45.630;8.886;2023-02-05T09:43:42;7.90;59.20
34406;DHT22;20658;45.630;8.886;2023-02-05T09:46:26;8.00;58.40
34406;DHT22;20658;45.630;8.886;2023-02-05T09:49:09;8.00;57.60
34406;DHT22;20658;45.630;8.886;2023-02-05T09:51:48;8.10;57.50
34406;DHT22;20658;45.630;8.886;2023-02-05T09:54:24;8.10;57.30
34406;DHT22;20658;45.630;8.886;2023-02-05T09:57:02;8.20;57.20
34406;DHT22;20658;45.630;8.886;2023-02-05T09:59:41;8.20;56.70
34406;DHT22;20658;45.630;8.886;2023-02-05T10:02:21;8.30;56.50
34406;DHT22;20658;45.630;8.886;2023-02-05T10:04:56;8.40;55.80
34406;DHT22;20658;45.630;8.886;2023-02-05T10:07:37;8.50;55.70
34406;DHT22;20658;45.630;8.886;2023-02-05T10:10:26;8.50;54.90
34406;DHT22;20658;45.630;8.886;2023-02-05T10:13:22;8.50;54.20
34406;DHT22;20658;45.630;8.886;2023-02-05T10:16:22;8.60;54.30
34406;DHT22;20658;45.630;8.886;2023-02-05T10:19:22;8.70;54.10
34406;DHT22;20658;45.630;8.886;2023-02-05T10:22:24;8.70;53.50
34406;DHT22;20658;45.630;8.886;2023-02-05T10:25:19;8.60;53.40
34406;DHT22;20658;45.630;8.886;2023-02-05T10:28:08;8.60;52.90
34406;DHT22;20658;45.630;8.886;2023-02-05T10:30:54;8.70;52.80
34406;DHT22;20658;45.630;8.886;2023-02-05T10:33:44;8.80;52.30
34406;DHT22;20658;45.630;8.886;2023-02-05T10:36:21;8.90;51.80
34406;DHT22;20658;45.630;8.886;2023-02-05T10:38:56;9.00;51.60
34406;DHT22;20658;45.630;8.886;2023-02-05T10:41:35;9.20;52.40
34406;DHT22;20658;45.630;8.886;2023-02-05T10:44:13;9.30;51.80
34406;DHT22;20658;45.630;8.886;2023-02-05T10:46:55;9.30;51.50
34406;DHT22;20658;45.630;8.886;2023-02-05T10:49:43;9.40;51.10
34406;DHT22;20658;45.630;8.886;2023-02-05T10:52:20;9.40;51.00
34406;DHT22;20658;45.630;8.886;2023-02-05T10:54:53;9.50;50.90
34406;DHT22;20658;45.630;8.886;2023-02-05T10:57:30;9.30;50.70
34406;DHT22;20658;45.630;8.886;2023-02-05T11:00:14;9.40;50.40
34406;DHT22;20658;45.630;8.886;2023-02-05T11:02:52;9.40;50.20
34406;DHT22;20658;45.630;8.886;2023-02-05T11:05:33;9.60;49.60
34406;DHT22;20658;45.630;8.886;2023-02-05T11:08:29;9.60;49.10
34406;DHT22;20658;45.630;8.886;2023-02-05T11:11:05;9.50;49.60
34406;DHT22;20658;45.630;8.886;2023-02-05T11:13:48;9.60;49.90
34406;DHT22;20658;45.630;8.886;2023-02-05T11:16:33;9.40;49.50
34406;DHT22;20658;45.630;8.886;2023-02-05T11:19:17;9.20;50.20
34406;DHT22;20658;45.630;8.886;2023-02-05T11:21:52;9.10;50.80
34406;DHT22;20658;45.630;8.886;2023-02-05T11:24:28;9.20;50.50
34406;DHT22;20658;45.630;8.886;2023-02-05T11:27:21;9.10;50.50
34406;DHT22;20658;45.630;8.886;2023-02-05T11:30:17;9.10;50.20
34406;DHT22;20658;45.630;8.886;2023-02-05T11:32:53;9.00;49.80
34406;DHT22;20658;45.630;8.886;2023-02-05T11:35:30;9.00;50.10
34406;DHT22;20658;45.630;8.886;2023-02-05T11:38:08;8.90;49.90
34406;DHT22;20658;45.630;8.886;2023-02-05T11:40:51;8.90;50.20
34406;DHT22;20658;45.630;8.886;2023-02-05T11:43:32;8.80;50.20
34406;DHT22;20658;45.630;8.886;2023-02-05T11:46:07;8.80;50.50
34406;DHT22;20658;45.630;8.886;2023-02-05T11:48:43;8.90;50.40
34406;DHT22;20658;45.630;8.886;2023-02-05T11:51:35;9.00;50.10
34406;DHT22;20658;45.630;8.886;2023-02-05T11:54:19;9.40;49.30
34406;DHT22;20658;45.630;8.886;2023-02-05T11:57:03;9.60;48.90
34406;DHT22;20658;45.630;8.886;2023-02-05T11:59:38;9.90;47.70
34406;DHT22;20658;45.630;8.886;2023-02-05T12:02:28;9.90;47.40
34406;DHT22;20658;45.630;8.886;2023-02-05T12:05:16;9.90;47.40
34406;DHT22;20658;45.630;8.886;2023-02-05T12:07:54;9.80;47.50
34406;DHT22;20658;45.630;8.886;2023-02-05T12:10:46;10.10;47.50
34406;DHT22;20658;45.630;8.886;2023-02-05T12:13:31;9.90;46.90
34406;DHT22;20658;45.630;8.886;2023-02-05T12:16:21;10.10;46.50
34406;DHT22;20658;45.630;8.886;2023-02-05T12:19:08;9.90;46.90
34406;DHT22;20658;45.630;8.886;2023-02-05T12:21:49;10.00;47.00
34406;DHT22;20658;45.630;8.886;2023-02-05T12:24:38;10.20;46.90
34406;DHT22;20658;45.630;8.886;2023-02-05T12:27:29;10.40;46.80
34406;DHT22;20658;45.630;8.886;2023-02-05T12:30:35;10.50;46.50
34406;DHT22;20658;45.630;8.886;2023-02-05T12:33:28;10.50;46.30
34406;DHT22;20658;45.630;8.886;2023-02-05T12:36:22;10.40;45.40
34406;DHT22;20658;45.630;8.886;2023-02-05T12:39:09;10.50;45.50
34406;DHT22;20658;45.630;8.886;2023-02-05T12:41:48;10.40;45.80
34406;DHT22;20658;45.630;8.886;2023-02-05T12:44:37;10.50;46.20
34406;DHT22;20658;45.630;8.886;2023-02-05T12:47:32;10.50;45.90
34406;DHT22;20658;45.630;8.886;2023-02-05T12:50:25;10.40;45.70
34406;DHT22;20658;45.630;8.886;2023-02-05T12:53:23;10.40;45.40
34406;DHT22;20658;45.630;8.886;2023-02-05T12:56:27;10.60;45.50
34406;DHT22;20658;45.630;8.886;2023-02-05T12:59:05;10.60;45.50
34406;DHT22;20658;45.630;8.886;2023-02-05T13:01:54;10.50;45.50
34406;DHT22;20658;45.630;8.886;2023-02-05T13:04:35;10.30;45.20
34406;DHT22;20658;45.630;8.886;2023-02-05T13:07:14;10.50;45.30
34406;DHT22;20658;45.630;8.886;2023-02-05T13:09:59;10.50;44.80
34406;DHT22;20658;45.630;8.886;2023-02-05T13:12:36;10.60;44.90
34406;DHT22;20658;45.630;8.886;2023-02-05T13:15:16;10.60;44.70
34406;DHT22;20658;45.630;8.886;2023-02-05T13:17:59;10.60;44.40
34406;DHT22;20658;45.630;8.886;2023-02-05T13:20:38;10.60;44.70
34406;DHT22;20658;45.630;8.886;2023-02-05T13:23:33;10.50;44.30
34406;DHT22;20658;45.630;8.886;2023-02-05T13:26:29;10.50;45.00
34406;DHT22;20658;45.630;8.886;2023-02-05T13:29:24;10.50;45.10
34406;DHT22;20658;45.630;8.886;2023-02-05T13:32:02;10.60;44.80
34406;DHT22;20658;45.630;8.886;2023-02-05T13:34:38;10.30;44.50
34406;DHT22;20658;45.630;8.886;2023-02-05T13:41:18;10.30;45.40
34406;DHT22;20658;45.630;8.886;2023-02-05T13:44:10;10.20;45.30
34406;DHT22;20658;45.630;8.886;2023-02-05T13:47:20;10.00;45.20
34406;DHT22;20658;45.630;8.886;2023-02-05T13:54:03;9.70;46.10
34406;DHT22;20658;45.630;8.886;2023-02-05T13:57:09;9.60;45.90
34406;DHT22;20658;45.630;8.886;2023-02-05T13:59:51;9.80;46.00
34406;DHT22;20658;45.630;8.886;2023-02-05T14:02:31;9.90;45.30
34406;DHT22;20658;45.630;8.886;2023-02-05T14:05:06;9.90;45.20
34406;DHT22;20658;45.630;8.886;2023-02-05T14:07:44;9.90;45.20
34406;DHT22;20658;45.630;8.886;2023-02-05T14:10:26;10.20;45.30
34406;DHT22;20658;45.630;8.886;2023-02-05T14:13:11;10.00;45.00
34406;DHT22;20658;45.630;8.886;2023-02-05T14:15:51;10.00;44.50
34406;DHT22;20658;45.630;8.886;2023-02-05T14:18:44;10.00;44.80
34406;DHT22;20658;45.630;8.886;2023-02-05T14:21:48;10.00;44.30
34406;DHT22;20658;45.630;8.886;2023-02-05T14:24:43;10.00;44.30
34406;DHT22;20658;45.630;8.886;2023-02-05T14:27:49;9.90;44.40
34406;DHT22;20658;45.630;8.886;2023-02-05T14:30:48;9.70;44.60
34406;DHT22;20658;45.630;8.886;2023-02-05T14:33:36;9.70;44.70
34406;DHT22;20658;45.630;8.886;2023-02-05T14:36:41;9.80;44.80
34406;DHT22;20658;45.630;8.886;2023-02-05T14:39:23;9.80;44.90
34406;DHT22;20658;45.630;8.886;2023-02-05T14:41:59;10.00;45.00
34406;DHT22;20658;45.630;8.886;2023-02-05T14:44:38;9.90;44.90
34406;DHT22;20658;45.630;8.886;2023-02-05T14:47:19;9.70;45.10
34406;DHT22;20658;45.630;8.886;2023-02-05T14:50:03;9.50;45.00
34406;DHT22;20658;45.630;8.886;2023-02-05T14:52:46;9.50;45.20
34406;DHT22;20658;45.630;8.886;2023-02-05T14:55:27;9.50;45.40
34406;DHT22;20658;45.630;8.886;2023-02-05T14:58:06;9.40;45.40
34406;DHT22;20658;45.630;8.886;2023-02-05T15:00:51;9.30;45.70
34406;DHT22;20658;45.630;8.886;2023-02-05T15:04:03;9.30;45.80
34406;DHT22;20658;45.630;8.886;2023-02-05T15:06:38;9.30;45.80
34406;DHT22;20658;45.630;8.886;2023-02-05T15:09:16;9.30;46.20
34406;DHT22;20658;45.630;8.886;2023-02-05T15:12:02;9.30;46.30
34406;DHT22;20658;45.630;8.886;2023-02-05T15:14:51;9.20;46.40
34406;DHT22;20658;45.630;8.886;2023-02-05T15:17:49;9.10;46.90
34406;DHT22;20658;45.630;8.886;2023-02-05T15:20:28;9.10;46.80
34406;DHT22;20658;45.630;8.886;2023-02-05T15:23:21;9.10;46.90
34406;DHT22;20658;45.630;8.886;2023-02-05T15:26:04;9.10;46.90
34406;DHT22;20658;45.630;8.886;2023-02-05T15:28:45;8.90;47.30
34406;DHT22;20658;45.630;8.886;2023-02-05T15:31:36;8.90;47.50
34406;DHT22;20658;45.630;8.886;2023-02-05T15:34:27;8.90;47.60
34406;DHT22;20658;45.630;8.886;2023-02-05T15:37:05;8.80;47.60
34406;DHT22;20658;45.630;8.886;2023-02-05T15:39:52;8.60;47.70
34406;DHT22;20658;45.630;8.886;2023-02-05T15:42:31;8.60;48.00
34406;DHT22;20658;45.630;8.886;2023-02-05T15:45:16;8.50;48.50
34406;DHT22;20658;45.630;8.886;2023-02-05T15:47:58;8.40;48.50
34406;DHT22;20658;45.630;8.886;2023-02-05T15:50:36;8.30;49.10
34406;DHT22;20658;45.630;8.886;2023-02-05T15:53:24;8.20;49.40
34406;DHT22;20658;45.630;8.886;2023-02-05T15:56:00;8.20;49.60
34406;DHT22;20658;45.630;8.886;2023-02-05T15:58:35;8.10;49.80
34406;DHT22;20658;45.630;8.886;2023-02-05T16:01:09;8.10;50.10
34406;DHT22;20658;45.630;8.886;2023-02-05T16:03:42;8.00;50.30
34406;DHT22;20658;45.630;8.886;2023-02-05T16:06:19;8.00;50.50
34406;DHT22;20658;45.630;8.886;2023-02-05T16:08:53;7.80;50.70
34406;DHT22;20658;45.630;8.886;2023-02-05T16:11:28;7.70;50.70
34406;DHT22;20658;45.630;8.886;2023-02-05T16:14:05;7.60;51.10
34406;DHT22;20658;45.630;8.886;2023-02-05T16:16:43;7.60;51.30
34406;DHT22;20658;45.630;8.886;2023-02-05T16:19:33;7.50;51.50
34406;DHT22;20658;45.630;8.886;2023-02-05T16:22:21;7.30;50.70
34406;DHT22;20658;45.630;8.886;2023-02-05T16:25:00;7.30;51.00
34406;DHT22;20658;45.630;8.886;2023-02-05T16:27:43;7.30;51.30
34406;DHT22;20658;45.630;8.886;2023-02-05T16:30:20;7.20;51.80
34406;DHT22;20658;45.630;8.886;2023-02-05T16:33:00;7.10;52.00
34406;DHT22;20658;45.630;8.886;2023-02-05T16:35:39;7.00;52.40
34406;DHT22;20658;45.630;8.886;2023-02-05T16:38:20;7.00;52.70
34406;DHT22;20658;45.630;8.886;2023-02-05T16:40:56;6.90;53.20
34406;DHT22;20658;45.630;8.886;2023-02-05T16:43:35;6.80;53.30
34406;DHT22;20658;45.630;8.886;2023-02-05T16:46:33;6.70;53.80
34406;DHT22;20658;45.630;8.886;2023-02-05T16:49:28;6.70;54.20
34406;DHT22;20658;45.630;8.886;2023-02-05T16:52:02;6.60;54.40
34406;DHT22;20658;45.630;8.886;2023-02-05T16:54:37;6.60;54.70
34406;DHT22;20658;45.630;8.886;2023-02-05T16:57:15;6.50;55.00
34406;DHT22;20658;45.630;8.886;2023-02-05T16:59:58;6.50;55.30
34406;DHT22;20658;45.630;8.886;2023-02-05T17:02:34;6.40;55.50
34406;DHT22;20658;45.630;8.886;2023-02-05T17:05:21;6.40;55.60
34406;DHT22;20658;45.630;8.886;2023-02-05T17:07:58;6.40;55.80
34406;DHT22;20658;45.630;8.886;2023-02-05T17:10:47;6.40;55.80
34406;DHT22;20658;45.630;8.886;2023-02-05T17:13:34;6.30;56.00